createdAt,value
2023-09-23T00:02:09.906Z,16.49
2023-09-23T00:04:39.365Z,16.50
2023-09-23T00:07:10.351Z,16.51
2023-09-23T00:09:39.387Z,16.58
2023-09-23T00:12:08.776Z,16.56
2023-09-23T00:14:38.025Z,16.58
2023-09-23T00:17:07.646Z,16.58
2023-09-23T00:19:36.643Z,16.58
2023-09-23T00:22:06.935Z,16.63
2023-09-23T00:24:38.043Z,16.57
2023-09-23T00:27:08.754Z,16.46
2023-09-23T00:29:38.819Z,16.55
2023-09-23T00:32:09.170Z,16.56
2023-09-23T00:34:38.800Z,16.60
2023-09-23T00:37:09.741Z,16.54
2023-09-23T00:39:43.598Z,16.51
2023-09-23T00:42:13.457Z,16.39
2023-09-23T00:44:42.515Z,16.37
2023-09-23T00:47:15.044Z,16.41
2023-09-23T00:49:45.958Z,16.42
2023-09-23T00:52:18.168Z,16.36
2023-09-23T00:54:51.036Z,16.46
2023-09-23T00:57:20.448Z,16.41
2023-09-23T00:59:49.407Z,16.39
2023-09-23T01:02:19.337Z,16.36
2023-09-23T01:04:48.503Z,16.31
2023-09-23T01:07:19.085Z,16.35
2023-09-23T01:09:49.589Z,16.40
2023-09-23T01:12:20.900Z,16.30
2023-09-23T01:14:50.085Z,16.23
2023-09-23T01:17:19.357Z,16.28
2023-09-23T01:19:49.060Z,16.26
2023-09-23T01:22:25.524Z,16.28
2023-09-23T01:24:54.717Z,16.28
2023-09-23T01:27:24.492Z,16.24
2023-09-23T01:29:55.046Z,16.21
2023-09-23T01:32:37.682Z,16.25
2023-09-23T01:35:08.179Z,16.20
2023-09-23T01:37:39.896Z,16.25
2023-09-23T01:40:10.421Z,16.30
2023-09-23T01:42:39.752Z,16.31
2023-09-23T01:45:11.331Z,16.26
2023-09-23T01:47:40.899Z,16.23
2023-09-23T01:50:11.857Z,16.24
2023-09-23T01:52:43.053Z,16.18
2023-09-23T01:55:13.619Z,16.18
2023-09-23T01:57:43.020Z,16.20
2023-09-23T02:00:19.293Z,16.23
2023-09-23T02:02:50.436Z,16.27
2023-09-23T02:05:20.160Z,16.24
2023-09-23T02:07:51.739Z,16.23
2023-09-23T02:10:22.521Z,16.22
2023-09-23T02:12:52.205Z,16.25
2023-09-23T02:15:21.551Z,16.26
2023-09-23T02:17:52.127Z,16.23
2023-09-23T02:20:23.502Z,16.28
2023-09-23T02:22:56.030Z,16.22
2023-09-23T02:25:26.747Z,16.20
2023-09-23T02:27:57.302Z,16.22
2023-09-23T02:30:26.327Z,16.20
2023-09-23T02:32:55.909Z,16.18
2023-09-23T02:35:26.796Z,16.21
2023-09-23T02:37:57.855Z,16.17
2023-09-23T02:40:28.633Z,16.21
2023-09-23T02:43:00.937Z,16.14
2023-09-23T02:45:30.149Z,16.18
2023-09-23T02:47:59.691Z,16.07
2023-09-23T02:50:28.853Z,16.10
2023-09-23T02:53:00.501Z,16.10
2023-09-23T02:55:29.646Z,16.09
2023-09-23T02:57:58.959Z,16.04
2023-09-23T03:00:31.504Z,15.98
2023-09-23T03:03:03.816Z,15.89
2023-09-23T03:05:39.923Z,15.99
2023-09-23T03:08:15.275Z,15.98
2023-09-23T03:10:46.091Z,16.01
2023-09-23T03:13:15.509Z,16.06
2023-09-23T03:15:51.009Z,16.07
2023-09-23T03:18:29.451Z,16.15
2023-09-23T03:21:05.144Z,16.13
2023-09-23T03:23:36.432Z,16.07
2023-09-23T03:26:05.899Z,16.08
2023-09-23T03:28:37.611Z,16.06
2023-09-23T03:31:09.964Z,16.11
2023-09-23T03:33:43.992Z,16.07
2023-09-23T03:36:17.326Z,16.02
2023-09-23T03:38:48.530Z,15.98
2023-09-23T03:41:17.935Z,16.07
2023-09-23T03:43:49.018Z,15.95
2023-09-23T03:46:19.070Z,15.96
2023-09-23T03:48:48.870Z,15.94
2023-09-23T03:51:19.007Z,15.94
2023-09-23T03:53:49.787Z,15.85
2023-09-23T03:56:19.421Z,15.82
2023-09-23T03:58:48.965Z,15.82
2023-09-23T04:01:18.257Z,15.81
2023-09-23T04:03:47.862Z,15.74
2023-09-23T04:06:16.859Z,15.81
2023-09-23T04:08:46.313Z,15.76
2023-09-23T04:11:17.398Z,15.70
2023-09-23T04:13:47.469Z,15.71
2023-09-23T04:16:16.961Z,15.70
2023-09-23T04:18:47.853Z,15.73
2023-09-23T04:21:18.939Z,15.72
2023-09-23T04:23:50.032Z,15.66
2023-09-23T04:26:22.952Z,15.66
2023-09-23T04:28:53.744Z,15.66
2023-09-23T04:31:26.133Z,15.66
2023-09-23T04:33:55.467Z,15.71
2023-09-23T04:36:24.539Z,15.62
2023-09-23T04:38:53.824Z,15.66
2023-09-23T04:41:24.231Z,15.72
2023-09-23T04:43:53.640Z,15.67
2023-09-23T04:46:22.837Z,15.62
2023-09-23T04:48:52.213Z,15.64
2023-09-23T04:51:21.231Z,15.73
2023-09-23T04:53:51.638Z,15.69
2023-09-23T04:56:20.483Z,15.61
2023-09-23T04:58:52.234Z,15.62
2023-09-23T05:01:21.365Z,15.59
2023-09-23T05:03:50.666Z,15.58
2023-09-23T05:06:19.752Z,15.57
2023-09-23T05:08:49.108Z,15.61
2023-09-23T05:11:18.829Z,15.58
2023-09-23T05:13:48.199Z,15.65
2023-09-23T05:16:18.683Z,15.71
2023-09-23T05:18:49.882Z,15.63
2023-09-23T05:21:19.908Z,15.65
2023-09-23T05:23:50.673Z,15.59
2023-09-23T05:26:20.541Z,15.60
2023-09-23T05:28:50.822Z,15.67
2023-09-23T05:31:21.624Z,15.64
2023-09-23T05:33:50.990Z,15.70
2023-09-23T05:36:21.481Z,15.72
2023-09-23T05:38:50.895Z,15.74
2023-09-23T05:41:25.231Z,15.81
2023-09-23T05:43:54.713Z,15.82
2023-09-23T05:46:25.177Z,15.93
2023-09-23T05:48:54.539Z,15.97
2023-09-23T05:51:23.484Z,16.03
2023-09-23T05:53:52.837Z,16.02
2023-09-23T05:56:21.860Z,16.05
2023-09-23T05:58:51.612Z,16.07
2023-09-23T06:01:21.113Z,16.10
2023-09-23T06:03:51.919Z,16.12
2023-09-23T06:06:21.082Z,16.16
2023-09-23T06:08:51.707Z,16.13
2023-09-23T06:11:21.374Z,16.14
2023-09-23T06:13:50.705Z,16.17
2023-09-23T06:16:19.744Z,16.20
2023-09-23T06:18:50.432Z,16.22
2023-09-23T06:21:19.998Z,16.25
2023-09-23T06:23:49.441Z,16.28
2023-09-23T06:26:18.583Z,16.28
2023-09-23T06:28:47.992Z,16.30
2023-09-23T06:31:17.118Z,16.26
2023-09-23T06:33:46.874Z,16.31
2023-09-23T06:36:17.373Z,16.33
2023-09-23T06:38:46.762Z,16.27
2023-09-23T06:41:15.830Z,16.39
2023-09-23T06:43:45.928Z,16.39
2023-09-23T06:46:15.554Z,16.35
2023-09-23T06:48:44.876Z,16.39
2023-09-23T06:51:13.923Z,16.38
2023-09-23T06:53:46.802Z,16.32
2023-09-23T06:56:16.285Z,16.39
2023-09-23T06:58:45.873Z,16.42
2023-09-23T07:01:14.924Z,16.43
2023-09-23T07:03:44.431Z,16.52
2023-09-23T07:06:13.641Z,16.52
2023-09-23T07:08:44.652Z,16.65
2023-09-23T07:11:16.917Z,16.64
2023-09-23T07:13:47.872Z,16.64
2023-09-23T07:16:17.434Z,16.65
2023-09-23T07:18:47.224Z,16.77
2023-09-23T07:21:16.257Z,16.85
2023-09-23T07:23:47.076Z,16.85
2023-09-23T07:26:22.611Z,16.77
2023-09-23T07:28:52.461Z,16.85
2023-09-23T07:31:21.791Z,16.88
2023-09-23T07:33:51.170Z,16.86
2023-09-23T07:36:20.358Z,16.97
2023-09-23T07:38:51.043Z,17.04
2023-09-23T07:41:20.107Z,17.18
2023-09-23T07:43:50.728Z,17.18
2023-09-23T07:46:20.052Z,17.27
2023-09-23T07:48:49.382Z,17.38
2023-09-23T07:51:18.398Z,17.45
2023-09-23T07:53:48.761Z,17.60
2023-09-23T07:56:19.410Z,17.56
2023-09-23T07:58:48.841Z,17.63
2023-09-23T08:01:18.571Z,17.61
2023-09-23T08:03:47.911Z,17.65
2023-09-23T08:06:17.050Z,17.68
2023-09-23T08:08:46.311Z,17.82
2023-09-23T08:11:15.903Z,17.84
2023-09-23T08:13:48.404Z,17.80
2023-09-23T08:16:18.076Z,17.81
2023-09-23T08:18:47.484Z,17.84
2023-09-23T08:21:16.663Z,17.81
2023-09-23T08:23:46.452Z,17.95
2023-09-23T08:26:15.863Z,17.92
2023-09-23T08:28:46.658Z,18.02
2023-09-23T08:31:18.077Z,18.02
2023-09-23T08:33:47.853Z,17.99
2023-09-23T08:36:17.065Z,18.03
2023-09-23T08:38:47.164Z,18.03
2023-09-23T08:41:21.319Z,18.05
2023-09-23T08:43:53.944Z,17.95
2023-09-23T08:46:23.962Z,18.00
2023-09-23T08:48:53.346Z,18.09
2023-09-23T08:51:25.601Z,18.07
2023-09-23T08:53:55.913Z,18.18
2023-09-23T08:56:25.067Z,18.18
2023-09-23T08:58:55.829Z,18.17
2023-09-23T09:01:25.101Z,18.17
2023-09-23T09:03:54.782Z,18.16
2023-09-23T09:06:30.941Z,18.14
2023-09-23T09:09:01.034Z,18.12
2023-09-23T09:11:30.050Z,18.17
2023-09-23T09:14:00.720Z,18.12
2023-09-23T09:16:31.082Z,18.25
2023-09-23T09:19:00.465Z,18.21
2023-09-23T09:21:29.539Z,18.20
2023-09-23T09:23:58.913Z,18.21
2023-09-23T09:26:27.977Z,18.16
2023-09-23T09:28:57.370Z,18.29
2023-09-23T09:31:34.060Z,18.31
2023-09-23T09:34:09.555Z,18.30
2023-09-23T09:36:40.865Z,18.45
2023-09-23T09:39:14.085Z,18.54
2023-09-23T09:41:50.016Z,18.58
2023-09-23T09:44:22.485Z,18.75
2023-09-23T09:46:56.115Z,18.79
2023-09-23T09:49:26.552Z,18.85
2023-09-23T09:51:55.972Z,18.89
2023-09-23T09:54:27.399Z,19.00
2023-09-23T09:56:57.471Z,18.99
2023-09-23T09:59:34.607Z,19.08
2023-09-23T10:02:06.202Z,19.08
2023-09-23T10:04:36.307Z,19.17
2023-09-23T10:07:09.435Z,19.20
2023-09-23T10:09:40.805Z,19.24
2023-09-23T10:12:11.024Z,19.30
2023-09-23T10:14:40.294Z,19.42
2023-09-23T10:17:12.182Z,19.38
2023-09-23T10:19:43.780Z,19.48
2023-09-23T10:22:18.499Z,19.40
2023-09-23T10:24:48.386Z,19.44
2023-09-23T10:27:25.359Z,19.53
2023-09-23T10:29:56.223Z,19.60
2023-09-23T10:32:29.637Z,19.60
2023-09-23T10:35:00.186Z,19.67
2023-09-23T10:37:31.189Z,19.70
2023-09-23T10:40:10.425Z,19.73
2023-09-23T10:42:39.964Z,19.73
2023-09-23T10:45:11.432Z,19.63
2023-09-23T10:47:45.229Z,19.77
2023-09-23T10:50:15.374Z,19.70
2023-09-23T10:52:44.769Z,19.70
2023-09-23T10:55:14.050Z,19.70
2023-09-23T10:57:44.223Z,19.68
2023-09-23T11:00:21.666Z,19.77
2023-09-23T11:02:56.143Z,19.75
2023-09-23T11:05:26.634Z,19.70
2023-09-23T11:07:57.615Z,19.74
2023-09-23T11:10:29.303Z,19.73
2023-09-23T11:12:59.591Z,19.80
2023-09-23T11:15:31.585Z,19.80
2023-09-23T11:18:03.510Z,19.84
2023-09-23T11:20:33.933Z,19.97
2023-09-23T11:23:04.918Z,19.92
2023-09-23T11:25:38.822Z,19.99
2023-09-23T11:28:08.002Z,20.06
2023-09-23T11:30:37.404Z,20.06
2023-09-23T11:33:08.069Z,20.12
2023-09-23T11:35:37.533Z,20.15
2023-09-23T11:38:06.835Z,20.07
2023-09-23T11:40:36.482Z,20.05
2023-09-23T11:43:06.716Z,20.09
2023-09-23T11:45:36.538Z,20.09
2023-09-23T11:48:09.412Z,20.12
2023-09-23T11:50:39.360Z,20.14
2023-09-23T11:53:08.669Z,20.21
2023-09-23T11:55:38.141Z,20.28
2023-09-23T11:58:07.326Z,20.23
2023-09-23T12:00:36.722Z,20.20
2023-09-23T12:03:07.640Z,20.19
2023-09-23T12:05:37.158Z,20.23
2023-09-23T12:08:06.564Z,20.24
2023-09-23T12:10:36.079Z,20.19
2023-09-23T12:13:06.769Z,20.16
2023-09-23T12:15:36.378Z,20.21
2023-09-23T12:18:07.476Z,20.23
2023-09-23T12:20:36.870Z,20.28
2023-09-23T12:23:05.963Z,20.32
2023-09-23T12:25:35.364Z,20.32
2023-09-23T12:28:05.332Z,20.39
2023-09-23T12:30:35.564Z,20.44
2023-09-23T12:33:04.662Z,20.45
2023-09-23T12:35:35.369Z,20.36
2023-09-23T12:38:04.458Z,20.39
2023-09-23T12:40:34.418Z,20.47
2023-09-23T12:43:03.680Z,20.46
2023-09-23T12:45:33.011Z,20.43
2023-09-23T12:48:02.194Z,20.53
2023-09-23T12:50:31.761Z,20.41
2023-09-23T12:53:02.850Z,20.45
2023-09-23T12:55:32.316Z,20.47
2023-09-23T12:58:01.290Z,20.42
2023-09-23T13:00:30.919Z,20.51
2023-09-23T13:02:59.980Z,20.46
2023-09-23T13:05:29.503Z,20.39
2023-09-23T13:07:58.506Z,20.38
2023-09-23T13:10:29.282Z,20.49
2023-09-23T13:12:58.300Z,20.53
2023-09-23T13:15:28.191Z,20.58
2023-09-23T13:17:57.953Z,20.71
2023-09-23T13:20:27.451Z,20.64
2023-09-23T13:22:56.483Z,20.58
2023-09-23T13:25:26.707Z,20.62
2023-09-23T13:27:56.859Z,20.61
2023-09-23T13:30:26.202Z,20.77
2023-09-23T13:32:55.441Z,20.74
2023-09-23T13:35:25.149Z,20.75
2023-09-23T13:37:54.124Z,20.72
2023-09-23T13:40:23.511Z,20.66
2023-09-23T13:42:52.517Z,20.62
2023-09-23T13:45:23.270Z,20.57
2023-09-23T13:47:52.427Z,20.54
2023-09-23T13:50:21.882Z,20.51
2023-09-23T13:52:50.940Z,20.43
2023-09-23T13:55:20.411Z,20.36
2023-09-23T13:57:49.421Z,20.38
2023-09-23T14:00:19.085Z,20.35
2023-09-23T14:02:49.550Z,20.38
2023-09-23T14:05:19.154Z,20.39
2023-09-23T14:07:48.457Z,20.32
2023-09-23T14:10:22.101Z,20.29
2023-09-23T14:12:52.033Z,20.26
2023-09-23T14:15:21.871Z,20.33
2023-09-23T14:17:53.127Z,20.21
2023-09-23T14:20:22.696Z,20.16
2023-09-23T14:22:52.202Z,20.09
2023-09-23T14:25:24.330Z,20.08
2023-09-23T14:27:53.536Z,20.14
2023-09-23T14:30:22.796Z,20.19
2023-09-23T14:32:53.698Z,20.21
2023-09-23T14:35:23.240Z,20.23
2023-09-23T14:37:52.484Z,20.18
2023-09-23T14:40:21.950Z,20.10
2023-09-23T14:42:50.910Z,20.05
2023-09-23T14:45:20.491Z,20.12
2023-09-23T14:47:49.874Z,19.98
2023-09-23T14:50:22.665Z,20.07
2023-09-23T14:52:52.902Z,19.96
2023-09-23T14:55:23.255Z,19.95
2023-09-23T14:57:52.195Z,19.88
2023-09-23T15:00:21.582Z,19.88
2023-09-23T15:02:50.740Z,19.90
2023-09-23T15:05:22.561Z,19.87
2023-09-23T15:07:51.676Z,19.85
2023-09-23T15:10:21.104Z,19.79
2023-09-23T15:12:50.298Z,19.68
2023-09-23T15:15:21.060Z,19.55
2023-09-23T15:17:50.366Z,19.51
2023-09-23T15:20:21.211Z,19.50
2023-09-23T15:22:50.758Z,19.39
2023-09-23T15:25:20.541Z,19.25
2023-09-23T15:27:49.658Z,19.29
2023-09-23T15:30:19.241Z,19.30
2023-09-23T15:32:48.352Z,19.21
2023-09-23T15:35:19.648Z,19.20
2023-09-23T15:37:50.145Z,19.22
2023-09-23T15:40:19.628Z,19.11
2023-09-23T15:42:49.153Z,19.04
2023-09-23T15:45:18.625Z,19.15
2023-09-23T15:47:47.630Z,19.08
2023-09-23T15:50:17.139Z,18.98
2023-09-23T15:52:46.448Z,19.01
2023-09-23T15:55:19.284Z,18.92
2023-09-23T15:57:48.295Z,18.68
2023-09-23T16:00:18.095Z,18.90
2023-09-23T16:02:47.388Z,18.88
2023-09-23T16:05:16.894Z,18.82
2023-09-23T16:07:46.026Z,18.74
2023-09-23T16:10:16.801Z,18.56
2023-09-23T16:12:45.838Z,18.63
2023-09-23T16:15:15.186Z,18.56
2023-09-23T16:17:44.329Z,18.46
2023-09-23T16:20:14.119Z,18.47
2023-09-23T16:22:43.202Z,18.38
2023-09-23T16:25:12.471Z,18.37
2023-09-23T16:27:44.681Z,18.28
2023-09-23T16:30:14.710Z,18.24
2023-09-23T16:32:43.807Z,18.23
2023-09-23T16:35:13.506Z,18.20
2023-09-23T16:37:44.570Z,18.21
2023-09-23T16:40:14.612Z,18.09
2023-09-23T16:42:47.380Z,18.00
2023-09-23T16:45:16.853Z,18.11
2023-09-23T16:47:46.620Z,18.10
2023-09-23T16:50:16.425Z,18.08
2023-09-23T16:52:45.612Z,17.99
2023-09-23T16:55:16.771Z,18.00
2023-09-23T16:57:48.964Z,17.91
2023-09-23T17:00:19.160Z,17.84
2023-09-23T17:02:48.663Z,17.81
2023-09-23T17:05:18.889Z,17.77
2023-09-23T17:07:47.937Z,17.68
2023-09-23T17:10:17.265Z,17.69
2023-09-23T17:12:47.775Z,17.59
2023-09-23T17:15:17.171Z,17.60
2023-09-23T17:17:46.313Z,17.52
2023-09-23T17:20:16.305Z,17.51
2023-09-23T17:22:45.516Z,17.52
2023-09-23T17:25:14.816Z,17.44
2023-09-23T17:27:43.845Z,17.47
2023-09-23T17:30:15.162Z,17.48
2023-09-23T17:32:44.502Z,17.42
2023-09-23T17:35:14.169Z,17.28
2023-09-23T17:37:43.754Z,17.29
2023-09-23T17:40:15.190Z,17.34
2023-09-23T17:42:44.320Z,17.33
2023-09-23T17:45:15.051Z,17.24
2023-09-23T17:47:44.232Z,17.24
2023-09-23T17:50:13.689Z,17.20
2023-09-23T17:52:42.788Z,17.16
2023-09-23T17:55:12.309Z,17.20
2023-09-23T17:57:42.122Z,17.08
2023-09-23T18:00:13.894Z,17.08
2023-09-23T18:02:44.494Z,16.94
2023-09-23T18:05:14.226Z,16.93
2023-09-23T18:07:43.916Z,16.94
2023-09-23T18:10:13.423Z,16.94
2023-09-23T18:12:42.498Z,16.84
2023-09-23T18:15:14.111Z,16.88
2023-09-23T18:17:44.614Z,16.80
2023-09-23T18:20:15.596Z,16.76
2023-09-23T18:22:46.448Z,16.72
2023-09-23T18:25:16.137Z,16.63
2023-09-23T18:27:45.277Z,16.62
2023-09-23T18:30:15.827Z,16.59
2023-09-23T18:32:46.635Z,16.62
2023-09-23T18:35:16.319Z,16.53
2023-09-23T18:37:49.120Z,16.54
2023-09-23T18:40:18.636Z,16.46
2023-09-23T18:42:47.778Z,16.51
2023-09-23T18:45:17.335Z,16.49
2023-09-23T18:47:48.142Z,16.49
2023-09-23T18:50:18.485Z,16.45
2023-09-23T18:52:47.622Z,16.31
2023-09-23T18:55:17.448Z,16.31
2023-09-23T18:57:46.468Z,16.23
2023-09-23T19:00:16.575Z,16.11
2023-09-23T19:02:47.219Z,16.11
2023-09-23T19:05:17.031Z,16.01
2023-09-23T19:07:46.132Z,16.03
2023-09-23T19:10:15.557Z,15.94
2023-09-23T19:12:44.609Z,15.90
2023-09-23T19:15:16.976Z,15.94
2023-09-23T19:17:47.626Z,15.98
2023-09-23T19:20:18.098Z,15.89
2023-09-23T19:22:48.384Z,15.86
2023-09-23T19:25:17.924Z,15.85
2023-09-23T19:27:49.875Z,15.84
2023-09-23T19:30:19.257Z,15.76
2023-09-23T19:32:50.968Z,15.75
2023-09-23T19:35:21.096Z,15.73
2023-09-23T19:37:50.879Z,15.67
2023-09-23T19:40:21.926Z,15.60
2023-09-23T19:42:51.626Z,15.59
2023-09-23T19:45:21.115Z,15.57
2023-09-23T19:47:51.697Z,15.54
2023-09-23T19:50:21.341Z,15.54
2023-09-23T19:52:50.505Z,15.54
2023-09-23T19:55:20.592Z,15.50
2023-09-23T19:57:49.749Z,15.49
2023-09-23T20:00:20.220Z,15.48
2023-09-23T20:02:50.897Z,15.44
2023-09-23T20:05:20.714Z,15.24
2023-09-23T20:07:49.770Z,15.31
2023-09-23T20:10:19.150Z,15.27
2023-09-23T20:12:48.204Z,15.25
2023-09-23T20:15:19.036Z,15.24
2023-09-23T20:17:51.896Z,15.26
2023-09-23T20:20:21.560Z,15.20
2023-09-23T20:22:50.878Z,15.17
2023-09-23T20:25:20.819Z,15.21
2023-09-23T20:27:49.922Z,15.24
2023-09-23T20:30:19.653Z,15.22
2023-09-23T20:32:50.286Z,15.13
2023-09-23T20:35:21.297Z,15.13
2023-09-23T20:37:50.667Z,14.95
2023-09-23T20:40:22.212Z,14.99
2023-09-23T20:42:51.793Z,15.05
2023-09-23T20:45:21.758Z,15.06
2023-09-23T20:47:52.348Z,15.01
2023-09-23T20:50:23.007Z,14.91
2023-09-23T20:52:52.196Z,14.89
2023-09-23T20:55:21.525Z,14.94
2023-09-23T20:57:50.566Z,14.99
2023-09-23T21:00:20.769Z,14.92
2023-09-23T21:02:51.252Z,14.86
2023-09-23T21:05:22.295Z,14.80
2023-09-23T21:07:52.314Z,14.87
2023-09-23T21:10:21.887Z,14.77
2023-09-23T21:12:50.972Z,14.82
2023-09-23T21:15:20.540Z,14.74
2023-09-23T21:17:51.070Z,14.71
2023-09-23T21:20:20.595Z,14.64
2023-09-23T21:22:49.618Z,14.58
2023-09-23T21:25:19.220Z,14.45
2023-09-23T21:27:48.266Z,14.57
2023-09-23T21:30:19.603Z,14.57
2023-09-23T21:32:49.032Z,14.51
2023-09-23T21:35:19.960Z,14.52
2023-09-23T21:37:49.087Z,14.47
2023-09-23T21:40:18.801Z,14.51
2023-09-23T21:42:47.880Z,14.45
2023-09-23T21:45:17.178Z,14.43
2023-09-23T21:47:46.420Z,14.31
2023-09-23T21:50:15.888Z,14.35
2023-09-23T21:52:46.258Z,14.34
2023-09-23T21:55:15.834Z,14.39
2023-09-23T21:57:44.837Z,14.43
2023-09-23T22:00:27.530Z,14.35
2023-09-23T22:02:59.664Z,14.28
2023-09-23T22:05:32.228Z,14.15
2023-09-23T22:08:04.944Z,14.15
2023-09-23T22:10:34.737Z,14.19
2023-09-23T22:13:04.523Z,14.10
2023-09-23T22:15:34.899Z,14.01
2023-09-23T22:18:04.789Z,14.07
2023-09-23T22:20:34.217Z,14.07
2023-09-23T22:23:05.799Z,14.00
2023-09-23T22:25:35.171Z,13.84
2023-09-23T22:28:04.609Z,13.92
2023-09-23T22:30:34.013Z,13.94
2023-09-23T22:33:03.083Z,14.02
2023-09-23T22:35:33.881Z,13.94
2023-09-23T22:38:04.647Z,13.95
2023-09-23T22:40:34.011Z,13.88
2023-09-23T22:43:03.030Z,13.84
2023-09-23T22:45:39.278Z,13.77
2023-09-23T22:48:09.841Z,13.67
2023-09-23T22:50:41.491Z,13.76
2023-09-23T22:53:12.524Z,13.70
2023-09-23T22:55:41.835Z,13.79
2023-09-23T22:58:11.187Z,13.74
2023-09-23T23:00:40.785Z,13.77
2023-09-23T23:03:13.728Z,13.80
2023-09-23T23:05:44.322Z,13.82
2023-09-23T23:08:14.767Z,13.79
2023-09-23T23:10:44.202Z,13.83
2023-09-23T23:13:13.232Z,13.78
2023-09-23T23:15:42.672Z,13.80
2023-09-23T23:18:11.952Z,13.83
2023-09-23T23:20:41.541Z,13.95
2023-09-23T23:23:10.499Z,13.91
2023-09-23T23:25:41.193Z,13.84
2023-09-23T23:28:10.886Z,13.86
2023-09-23T23:30:42.195Z,13.95
2023-09-23T23:33:11.649Z,13.98
2023-09-23T23:35:41.680Z,13.95
2023-09-23T23:38:12.820Z,14.06
2023-09-23T23:40:43.798Z,14.04
2023-09-23T23:43:14.328Z,14.03
2023-09-23T23:45:43.840Z,14.00
2023-09-23T23:48:13.361Z,13.98
2023-09-23T23:50:43.989Z,13.95
2023-09-23T23:53:13.060Z,13.96
2023-09-23T23:55:43.706Z,13.93
2023-09-23T23:58:14.050Z,13.95
